createdAt,value
2023-05-14T00:00:35.652Z,12.4
2023-05-14T00:01:35.671Z,12.4
2023-05-14T00:02:35.750Z,12.4
2023-05-14T00:05:35.789Z,12.3
2023-05-14T00:06:35.489Z,12.3
2023-05-14T00:07:35.760Z,12.3
2023-05-14T00:08:35.726Z,12.3
2023-05-14T00:09:35.746Z,12.3
2023-05-14T00:10:35.622Z,12.3
2023-05-14T00:11:35.735Z,12.3
2023-05-14T00:13:35.475Z,12.3
2023-05-14T00:14:35.738Z,12.3
2023-05-14T00:16:34.757Z,12.3
2023-05-14T00:17:35.738Z,12.3
2023-05-14T00:18:35.488Z,12.3
2023-05-14T00:19:35.256Z,12.3
2023-05-14T00:20:35.735Z,12.2
2023-05-14T00:21:34.864Z,12.2
2023-05-14T00:22:35.437Z,12.2
2023-05-14T00:23:35.454Z,12.2
2023-05-14T00:25:35.452Z,12.2
2023-05-14T00:27:35.436Z,12.2
2023-05-14T00:30:35.457Z,12.2
2023-05-14T00:32:35.475Z,12.1
2023-05-14T00:33:35.434Z,12.1
2023-05-14T00:34:35.447Z,12.1
2023-05-14T00:37:35.423Z,12.1
2023-05-14T00:38:35.429Z,12.1
2023-05-14T00:39:35.469Z,12.1
2023-05-14T00:40:35.412Z,12.1
2023-05-14T00:42:35.455Z,12.1
2023-05-14T00:43:35.429Z,12.1
2023-05-14T00:46:35.478Z,12.1
2023-05-14T00:49:35.457Z,12
2023-05-14T00:50:35.428Z,12
2023-05-14T00:53:35.422Z,12
2023-05-14T00:54:35.219Z,12
2023-05-14T00:55:35.423Z,12
2023-05-14T00:57:35.431Z,12
2023-05-14T00:58:35.419Z,12
2023-05-14T00:59:34.843Z,12
2023-05-14T01:01:35.443Z,12
2023-05-14T01:02:35.488Z,12
2023-05-14T01:03:35.550Z,12
2023-05-14T01:04:35.421Z,12
2023-05-14T01:05:34.570Z,11.9
2023-05-14T01:06:35.403Z,11.9
2023-05-14T01:09:35.395Z,11.9
2023-05-14T01:10:34.563Z,11.9
2023-05-14T01:11:35.449Z,11.9
2023-05-14T01:12:35.407Z,11.9
2023-05-14T01:13:34.574Z,11.9
2023-05-14T01:17:35.427Z,11.9
2023-05-14T01:18:35.434Z,11.9
2023-05-14T01:19:34.790Z,11.8
2023-05-14T01:20:35.401Z,11.8
2023-05-14T01:23:35.385Z,11.8
2023-05-14T01:24:34.834Z,11.8
2023-05-14T01:25:34.812Z,11.8
2023-05-14T01:26:35.377Z,11.8
2023-05-14T01:29:35.391Z,11.8
2023-05-14T01:31:35.446Z,11.7
2023-05-14T01:32:35.437Z,11.7
2023-05-14T01:34:35.381Z,11.7
2023-05-14T01:35:35.388Z,11.7
2023-05-14T01:36:34.542Z,11.7
2023-05-14T01:37:35.381Z,11.7
2023-05-14T01:38:34.772Z,11.7
2023-05-14T01:39:35.373Z,11.7
2023-05-14T01:42:34.769Z,11.6
2023-05-14T01:43:35.379Z,11.6
2023-05-14T01:44:34.545Z,11.6
2023-05-14T01:45:35.340Z,11.6
2023-05-14T01:46:35.371Z,11.6
2023-05-14T01:47:35.411Z,11.6
2023-05-14T01:48:35.365Z,11.6
2023-05-14T01:49:35.341Z,11.6
2023-05-14T01:50:35.349Z,11.6
2023-05-14T01:52:35.365Z,11.6
2023-05-14T01:53:35.346Z,11.6
2023-05-14T01:54:35.343Z,11.6
2023-05-14T01:55:35.153Z,11.6
2023-05-14T01:58:35.330Z,11.6
2023-05-14T01:59:35.338Z,11.5
2023-05-14T02:00:35.374Z,11.5
2023-05-14T02:01:35.399Z,11.5
2023-05-14T02:05:35.326Z,11.5
2023-05-14T02:06:35.351Z,11.5
2023-05-14T02:07:35.354Z,11.5
2023-05-14T02:08:35.326Z,11.5
2023-05-14T02:11:35.334Z,11.5
2023-05-14T02:14:34.726Z,11.5
2023-05-14T02:15:35.343Z,11.5
2023-05-14T02:16:35.348Z,11.5
2023-05-14T02:17:35.165Z,11.4
2023-05-14T02:18:35.407Z,11.4
2023-05-14T02:21:34.729Z,11.4
2023-05-14T02:22:35.353Z,11.4
2023-05-14T02:24:35.320Z,11.4
2023-05-14T02:29:35.311Z,11.4
2023-05-14T02:31:35.376Z,11.4
2023-05-14T02:33:35.341Z,11.3
2023-05-14T02:34:34.494Z,11.3
2023-05-14T02:36:35.297Z,11.3
2023-05-14T02:37:34.752Z,11.3
2023-05-14T02:38:34.452Z,11.3
2023-05-14T02:40:34.476Z,11.3
2023-05-14T02:41:35.310Z,11.3
2023-05-14T02:43:35.272Z,11.3
2023-05-14T02:45:35.289Z,11.3
2023-05-14T02:46:35.408Z,11.3
2023-05-14T02:47:37.778Z,11.3
2023-05-14T02:49:35.324Z,11.3
2023-05-14T02:50:35.289Z,11.2
2023-05-14T02:52:35.305Z,11.2
2023-05-14T02:53:35.303Z,11.2
2023-05-14T02:54:35.296Z,11.2
2023-05-14T02:55:35.307Z,11.2
2023-05-14T02:57:35.277Z,11.2
2023-05-14T02:58:35.278Z,11.2
2023-05-14T03:00:35.313Z,11.2
2023-05-14T03:01:35.302Z,11.2
2023-05-14T03:03:35.263Z,11.2
2023-05-14T03:04:35.285Z,11.2
2023-05-14T03:05:35.288Z,11.1
2023-05-14T03:06:35.282Z,11.1
2023-05-14T03:07:34.450Z,11.1
2023-05-14T03:08:35.068Z,11.1
2023-05-14T03:10:35.263Z,11.1
2023-05-14T03:11:35.270Z,11.1
2023-05-14T03:12:35.292Z,11.1
2023-05-14T03:13:35.267Z,11.1
2023-05-14T03:15:35.260Z,11.1
2023-05-14T03:16:35.451Z,11.1
2023-05-14T03:17:35.302Z,11.1
2023-05-14T03:18:35.292Z,11.1
2023-05-14T03:19:35.243Z,11.1
2023-05-14T03:20:35.245Z,11.1
2023-05-14T03:21:34.069Z,11
2023-05-14T03:22:35.257Z,11
2023-05-14T03:23:35.251Z,11
2023-05-14T03:25:34.648Z,11
2023-05-14T03:26:34.431Z,11
2023-05-14T03:27:35.256Z,11
2023-05-14T03:29:35.242Z,11
2023-05-14T03:32:34.459Z,11
2023-05-14T03:33:35.240Z,11
2023-05-14T03:34:35.228Z,11
2023-05-14T03:35:35.229Z,11
2023-05-14T03:38:34.690Z,10.9
2023-05-14T03:41:35.228Z,10.9
2023-05-14T03:44:35.235Z,10.9
2023-05-14T03:45:35.226Z,10.9
2023-05-14T03:47:35.304Z,10.9
2023-05-14T03:48:35.271Z,10.9
2023-05-14T03:49:35.232Z,10.9
2023-05-14T03:50:35.247Z,10.9
2023-05-14T03:52:34.628Z,10.8
2023-05-14T03:53:34.389Z,10.8
2023-05-14T03:54:34.403Z,10.8
2023-05-14T03:57:35.215Z,10.8
2023-05-14T03:58:35.222Z,10.8
2023-05-14T03:59:35.241Z,10.8
2023-05-14T04:00:34.383Z,10.8
2023-05-14T04:01:35.205Z,10.8
2023-05-14T04:02:35.265Z,10.8
2023-05-14T04:03:35.374Z,10.8
2023-05-14T04:04:35.300Z,10.8
2023-05-14T04:05:35.399Z,10.8
2023-05-14T04:06:35.206Z,10.8
2023-05-14T04:07:35.204Z,10.8
2023-05-14T04:08:34.621Z,10.8
2023-05-14T04:09:34.629Z,10.8
2023-05-14T04:11:35.206Z,10.8
2023-05-14T04:12:35.220Z,10.7
2023-05-14T04:13:35.198Z,10.7
2023-05-14T04:14:35.183Z,10.7
2023-05-14T04:15:35.201Z,10.7
2023-05-14T04:16:35.246Z,10.7
2023-05-14T04:17:35.049Z,10.7
2023-05-14T04:18:35.433Z,10.7
2023-05-14T04:21:34.364Z,10.7
2023-05-14T04:22:35.183Z,10.7
2023-05-14T04:23:35.188Z,10.7
2023-05-14T04:24:35.201Z,10.7
2023-05-14T04:25:35.204Z,10.7
2023-05-14T04:26:35.216Z,10.7
2023-05-14T04:29:35.199Z,10.7
2023-05-14T04:30:35.183Z,10.7
2023-05-14T04:31:35.232Z,10.7
2023-05-14T04:34:35.183Z,10.7
2023-05-14T04:37:35.205Z,10.6
2023-05-14T04:38:35.355Z,10.6
2023-05-14T04:41:35.179Z,10.6
2023-05-14T04:43:35.152Z,10.6
2023-05-14T04:45:35.248Z,10.6
2023-05-14T04:46:34.665Z,10.6
2023-05-14T04:47:35.270Z,10.6
2023-05-14T04:48:35.192Z,10.6
2023-05-14T04:49:35.251Z,10.6
2023-05-14T04:50:35.393Z,10.6
2023-05-14T04:53:35.210Z,10.6
2023-05-14T04:54:35.270Z,10.6
2023-05-14T04:55:35.156Z,10.6
2023-05-14T04:57:35.159Z,10.6
2023-05-14T04:58:35.396Z,10.6
2023-05-14T04:59:34.316Z,10.6
2023-05-14T05:00:35.165Z,10.6
2023-05-14T05:01:35.229Z,10.6
2023-05-14T05:02:35.037Z,10.6
2023-05-14T05:04:35.137Z,10.6
2023-05-14T05:05:35.164Z,10.6
2023-05-14T05:06:34.304Z,10.6
2023-05-14T05:08:35.162Z,10.6
2023-05-14T05:09:35.152Z,10.6
2023-05-14T05:10:34.290Z,10.6
2023-05-14T05:13:35.152Z,10.6
2023-05-14T05:15:35.370Z,10.6
2023-05-14T05:17:35.205Z,10.6
2023-05-14T05:18:35.146Z,10.6
2023-05-14T05:20:35.148Z,10.6
2023-05-14T05:22:34.300Z,10.6
2023-05-14T05:23:35.126Z,10.6
2023-05-14T05:25:35.113Z,10.6
2023-05-14T05:26:35.132Z,10.6
2023-05-14T05:27:35.144Z,10.6
2023-05-14T05:28:34.291Z,10.6
2023-05-14T05:29:35.161Z,10.6
2023-05-14T05:30:35.132Z,10.6
2023-05-14T05:33:35.143Z,10.6
2023-05-14T05:34:34.277Z,10.6
2023-05-14T05:36:34.930Z,10.6
2023-05-14T05:37:35.108Z,10.6
2023-05-14T05:38:34.272Z,10.6
2023-05-14T05:39:35.379Z,10.6
2023-05-14T05:40:35.111Z,10.6
2023-05-14T05:41:35.093Z,10.6
2023-05-14T05:42:35.104Z,10.6
2023-05-14T05:43:34.499Z,10.6
2023-05-14T05:45:35.099Z,10.6
2023-05-14T05:46:34.536Z,10.6
2023-05-14T05:47:35.106Z,10.6
2023-05-14T05:48:35.075Z,10.6
2023-05-14T05:49:35.099Z,10.6
2023-05-14T05:50:35.122Z,10.6
2023-05-14T05:51:35.087Z,10.6
2023-05-14T05:52:35.081Z,10.7
2023-05-14T05:55:35.091Z,10.7
2023-05-14T05:57:35.080Z,10.7
2023-05-14T05:58:35.078Z,10.7
2023-05-14T05:59:35.129Z,10.7
2023-05-14T06:00:35.084Z,10.7
2023-05-14T06:02:35.045Z,10.7
2023-05-14T06:03:35.081Z,10.7
2023-05-14T06:05:35.149Z,10.7
2023-05-14T06:06:35.063Z,10.7
2023-05-14T06:07:34.480Z,10.7
2023-05-14T06:08:35.068Z,10.7
2023-05-14T06:10:34.480Z,10.7
2023-05-14T06:11:35.069Z,10.7
2023-05-14T06:12:35.065Z,10.7
2023-05-14T06:13:35.065Z,10.7
2023-05-14T06:16:35.125Z,10.8
2023-05-14T06:18:35.102Z,10.8
2023-05-14T06:19:35.060Z,10.8
2023-05-14T06:21:35.069Z,10.8
2023-05-14T06:22:35.083Z,10.8
2023-05-14T06:23:35.041Z,10.8
2023-05-14T06:24:35.029Z,10.8
2023-05-14T06:26:35.072Z,10.8
2023-05-14T06:27:35.061Z,10.8
2023-05-14T06:29:34.443Z,10.8
2023-05-14T06:30:35.052Z,10.8
2023-05-14T06:31:35.076Z,10.8
2023-05-14T06:32:35.065Z,10.9
2023-05-14T06:33:34.453Z,10.9
2023-05-14T06:35:34.188Z,10.9
2023-05-14T06:36:34.465Z,10.9
2023-05-14T06:37:35.193Z,10.9
2023-05-14T06:38:35.029Z,10.9
2023-05-14T06:40:35.014Z,10.9
2023-05-14T06:41:35.031Z,10.9
2023-05-14T06:42:35.011Z,10.9
2023-05-14T06:43:34.441Z,10.9
2023-05-14T06:44:35.022Z,11
2023-05-14T06:45:35.184Z,11
2023-05-14T06:46:34.998Z,11
2023-05-14T06:47:34.466Z,11
2023-05-14T06:48:35.104Z,11
2023-05-14T06:49:34.166Z,11
2023-05-14T06:50:34.421Z,11
2023-05-14T06:51:35.008Z,11
2023-05-14T06:52:35.023Z,11
2023-05-14T06:53:35.000Z,11.1
2023-05-14T06:54:34.437Z,11.1
2023-05-14T06:57:35.013Z,11.1
2023-05-14T06:58:34.979Z,11.1
2023-05-14T06:59:34.405Z,11.1
2023-05-14T07:00:35.019Z,11.1
2023-05-14T07:01:35.184Z,11.1
2023-05-14T07:02:35.032Z,11.2
2023-05-14T07:03:34.987Z,11.2
2023-05-14T07:04:35.033Z,11.2
2023-05-14T07:05:34.966Z,11.2
2023-05-14T07:06:34.973Z,11.2
2023-05-14T07:08:34.983Z,11.2
2023-05-14T07:09:34.799Z,11.2
2023-05-14T07:10:34.983Z,11.2
2023-05-14T07:11:34.988Z,11.3
2023-05-14T07:13:34.963Z,11.3
2023-05-14T07:14:34.543Z,11.3
2023-05-14T07:16:35.014Z,11.3
2023-05-14T07:17:34.991Z,11.3
2023-05-14T07:18:34.994Z,11.3
2023-05-14T07:19:34.770Z,11.3
2023-05-14T07:20:34.972Z,11.3
2023-05-14T07:22:34.962Z,11.4
2023-05-14T07:24:34.955Z,11.4
2023-05-14T07:25:34.964Z,11.4
2023-05-14T07:26:34.965Z,11.5
2023-05-14T07:27:34.961Z,11.5
2023-05-14T07:29:34.933Z,11.5
2023-05-14T07:30:34.944Z,11.5
2023-05-14T07:31:34.986Z,11.6
2023-05-14T07:32:34.776Z,11.6
2023-05-14T07:33:35.020Z,11.6
2023-05-14T07:35:34.948Z,11.7
2023-05-14T07:36:34.948Z,11.7
2023-05-14T07:37:34.104Z,11.7
2023-05-14T07:39:34.940Z,11.7
2023-05-14T07:42:36.508Z,11.8
2023-05-14T07:43:34.933Z,11.9
2023-05-14T07:44:34.924Z,11.9
2023-05-14T07:45:34.075Z,11.9
2023-05-14T07:46:34.919Z,11.9
2023-05-14T07:47:35.097Z,11.9
2023-05-14T07:49:34.897Z,12
2023-05-14T07:50:34.986Z,12
2023-05-14T07:52:34.924Z,12.1
2023-05-14T07:53:34.956Z,12.1
2023-05-14T07:54:34.897Z,12.1
2023-05-14T07:55:34.074Z,12.1
2023-05-14T07:57:34.911Z,12.2
2023-05-14T07:58:34.909Z,12.2
2023-05-14T07:59:34.916Z,12.3
2023-05-14T08:00:34.903Z,12.3
2023-05-14T08:01:35.397Z,12.3
2023-05-14T08:05:34.889Z,12.4
2023-05-14T08:06:34.107Z,12.4
2023-05-14T08:09:34.305Z,12.5
2023-05-14T08:10:34.920Z,12.6
2023-05-14T08:13:34.881Z,12.6
2023-05-14T08:14:34.914Z,12.7
2023-05-14T08:15:34.056Z,12.7
2023-05-14T08:16:34.903Z,12.7
2023-05-14T08:17:34.921Z,12.7
2023-05-14T08:18:34.899Z,12.8
2023-05-14T08:19:34.674Z,12.8
2023-05-14T08:22:34.288Z,12.9
2023-05-14T08:23:34.856Z,12.9
2023-05-14T08:24:34.879Z,12.9
2023-05-14T08:25:34.045Z,13
2023-05-14T08:26:34.670Z,13
2023-05-14T08:27:34.664Z,13
2023-05-14T08:28:34.850Z,13.1
2023-05-14T08:29:34.275Z,13.1
2023-05-14T08:30:34.874Z,13.1
2023-05-14T08:32:34.900Z,13.2
2023-05-14T08:33:34.861Z,13.2
2023-05-14T08:34:34.900Z,13.2
2023-05-14T08:35:34.028Z,13.3
2023-05-14T08:36:34.853Z,13.3
2023-05-14T08:37:34.861Z,13.3
2023-05-14T08:38:34.862Z,13.3
2023-05-14T08:40:34.880Z,13.4
2023-05-14T08:42:35.010Z,13.4
2023-05-14T08:43:34.860Z,13.5
2023-05-14T08:44:34.996Z,13.5
2023-05-14T08:46:34.826Z,13.6
2023-05-14T08:49:34.822Z,13.7
2023-05-14T08:50:34.826Z,13.7
2023-05-14T08:52:34.838Z,13.8
2023-05-14T08:53:34.238Z,13.8
2023-05-14T08:54:34.629Z,13.8
2023-05-14T08:55:34.863Z,13.9
2023-05-14T08:56:34.798Z,13.9
2023-05-14T08:57:34.816Z,13.9
2023-05-14T08:58:34.232Z,13.9
2023-05-14T08:59:34.826Z,14
2023-05-14T09:00:34.813Z,14
2023-05-14T09:01:34.256Z,14
2023-05-14T09:02:34.636Z,14
2023-05-14T09:05:34.845Z,14.1
2023-05-14T09:06:34.810Z,14.1
2023-05-14T09:07:33.953Z,14.2
2023-05-14T09:08:34.813Z,14.2
2023-05-14T09:09:34.786Z,14.2
2023-05-14T09:10:34.800Z,14.2
2023-05-14T09:11:34.801Z,14.2
2023-05-14T09:12:34.781Z,14.3
2023-05-14T09:13:34.001Z,14.3
2023-05-14T09:16:34.813Z,14.4
2023-05-14T09:17:34.842Z,14.4
2023-05-14T09:18:34.838Z,14.4
2023-05-14T09:19:34.780Z,14.4
2023-05-14T09:20:34.796Z,14.4
2023-05-14T09:21:34.777Z,14.5
2023-05-14T09:22:34.789Z,14.5
2023-05-14T09:23:34.782Z,14.5
2023-05-14T09:24:34.770Z,14.5
2023-05-14T09:25:34.790Z,14.5
2023-05-14T09:26:34.760Z,14.6
2023-05-14T09:27:34.817Z,14.6
2023-05-14T09:29:34.776Z,14.6
2023-05-14T09:30:34.777Z,14.7
2023-05-14T09:31:34.214Z,14.7
2023-05-14T09:32:34.831Z,14.7
2023-05-14T09:33:34.165Z,14.7
2023-05-14T09:34:34.821Z,14.8
2023-05-14T09:37:34.753Z,14.9
2023-05-14T09:38:34.756Z,14.9
2023-05-14T09:40:33.933Z,14.9
2023-05-14T09:41:34.753Z,15
2023-05-14T09:42:34.739Z,15
2023-05-14T09:43:34.745Z,15
2023-05-14T09:45:34.751Z,15.1
2023-05-14T09:48:34.831Z,15.2
2023-05-14T09:49:34.732Z,15.3
2023-05-14T09:52:34.725Z,15.4
2023-05-14T09:53:33.886Z,15.4
2023-05-14T09:54:34.619Z,15.4
2023-05-14T09:55:34.711Z,15.5
2023-05-14T09:56:34.718Z,15.5
2023-05-14T09:57:33.881Z,15.5
2023-05-14T09:58:34.891Z,15.6
2023-05-14T10:01:34.830Z,15.7
2023-05-14T10:02:34.784Z,15.7
2023-05-14T10:05:34.496Z,15.8
2023-05-14T10:06:33.853Z,15.9
2023-05-14T10:08:33.883Z,15.9
2023-05-14T10:09:34.699Z,16
2023-05-14T10:11:34.520Z,16.1
2023-05-14T10:12:34.706Z,16.1
2023-05-14T10:13:34.698Z,16.1
2023-05-14T10:14:34.505Z,16.2
2023-05-14T10:16:34.762Z,16.2
2023-05-14T10:19:34.676Z,16.4
2023-05-14T10:20:34.705Z,16.4
2023-05-14T10:21:34.712Z,16.4
2023-05-14T10:23:33.847Z,16.5
2023-05-14T10:25:34.687Z,16.6
2023-05-14T10:26:34.666Z,16.6
2023-05-14T10:27:34.672Z,16.7
2023-05-14T10:28:34.692Z,16.7
2023-05-14T10:29:34.706Z,16.7
2023-05-14T10:30:34.675Z,16.8
2023-05-14T10:32:33.861Z,16.8
2023-05-14T10:34:34.704Z,16.9
2023-05-14T10:35:34.647Z,16.9
2023-05-14T10:36:34.678Z,17
2023-05-14T10:37:34.653Z,17
2023-05-14T10:38:34.655Z,17
2023-05-14T10:39:34.088Z,17.1
2023-05-14T10:40:34.656Z,17.1
2023-05-14T10:41:34.070Z,17.1
2023-05-14T10:43:34.065Z,17.1
2023-05-14T10:44:34.663Z,17.1
2023-05-14T10:45:33.793Z,17.1
2023-05-14T10:46:34.209Z,17.2
2023-05-14T10:48:34.484Z,17.2
2023-05-14T10:50:34.623Z,17.2
2023-05-14T10:51:34.808Z,17.2
2023-05-14T10:52:34.637Z,17.3
2023-05-14T10:53:34.642Z,17.3
2023-05-14T10:54:34.034Z,17.3
2023-05-14T10:55:34.625Z,17.4
2023-05-14T10:57:34.041Z,17.4
2023-05-14T10:59:34.620Z,17.5
2023-05-14T11:00:34.623Z,17.5
2023-05-14T11:02:34.711Z,17.6
2023-05-14T11:03:34.463Z,17.6
2023-05-14T11:04:34.413Z,17.6
2023-05-14T11:06:33.779Z,17.7
2023-05-14T11:07:34.609Z,17.7
2023-05-14T11:09:34.664Z,17.8
2023-05-14T11:10:34.604Z,17.8
2023-05-14T11:11:34.624Z,17.8
2023-05-14T11:12:34.612Z,17.9
2023-05-14T11:13:34.718Z,17.9
2023-05-14T11:16:34.622Z,17.9
2023-05-14T11:17:34.645Z,17.9
2023-05-14T11:18:34.622Z,17.9
2023-05-14T11:19:34.596Z,17.9
2023-05-14T11:20:34.601Z,17.9
2023-05-14T11:21:34.633Z,17.9
2023-05-14T11:22:34.578Z,17.9
2023-05-14T11:23:34.599Z,17.8
2023-05-14T11:24:34.601Z,17.8
2023-05-14T11:25:34.586Z,17.8
2023-05-14T11:27:34.586Z,17.8
2023-05-14T11:28:34.606Z,17.8
2023-05-14T11:29:34.598Z,17.8
2023-05-14T11:30:34.740Z,17.7
2023-05-14T11:31:34.610Z,17.7
2023-05-14T11:32:34.700Z,17.7
2023-05-14T11:34:34.590Z,17.7
2023-05-14T11:35:34.388Z,17.6
2023-05-14T11:37:34.571Z,17.6
2023-05-14T11:38:34.568Z,17.6
2023-05-14T11:41:34.545Z,17.5
2023-05-14T11:42:34.726Z,17.5
2023-05-14T11:45:34.556Z,17.4
2023-05-14T11:49:33.717Z,17.4
2023-05-14T11:51:34.245Z,17.3
2023-05-14T11:52:34.526Z,17.3
2023-05-14T11:53:34.550Z,17.3
2023-05-14T11:54:34.557Z,17.3
2023-05-14T11:56:34.739Z,17.3
2023-05-14T11:57:34.534Z,17.3
2023-05-14T11:58:34.559Z,17.3
2023-05-14T12:00:34.508Z,17.2
2023-05-14T12:01:34.526Z,17.2
2023-05-14T12:02:34.703Z,17.2
2023-05-14T12:03:34.749Z,17.2
2023-05-14T12:04:34.574Z,17.2
2023-05-14T12:06:34.516Z,17.2
2023-05-14T12:07:33.774Z,17.2
2023-05-14T12:08:34.507Z,17.2
2023-05-14T12:09:33.690Z,17.2
2023-05-14T12:10:34.504Z,17.2
2023-05-14T12:11:34.494Z,17.2
2023-05-14T12:12:34.506Z,17.2
2023-05-14T12:13:34.514Z,17.1
2023-05-14T12:14:34.515Z,17.1
2023-05-14T12:15:33.910Z,17.1
2023-05-14T12:17:34.541Z,17.1
2023-05-14T12:21:34.503Z,17.1
2023-05-14T12:22:36.403Z,17.1
2023-05-14T12:23:34.478Z,17.1
2023-05-14T12:25:34.503Z,17.1
2023-05-14T12:26:34.487Z,17.1
2023-05-14T12:27:33.881Z,17.1
2023-05-14T12:29:34.468Z,17.1
2023-05-14T12:30:34.542Z,17.1
2023-05-14T12:31:34.553Z,17.1
2023-05-14T12:32:33.671Z,17.1
2023-05-14T12:33:34.473Z,17.1
2023-05-14T12:35:34.444Z,17.1
2023-05-14T12:36:34.470Z,17.1
2023-05-14T12:37:34.275Z,17.1
2023-05-14T12:38:34.454Z,17.1
2023-05-14T12:39:33.635Z,17.1
2023-05-14T12:40:34.477Z,17.1
2023-05-14T12:41:34.257Z,17.1
2023-05-14T12:42:34.249Z,17.1
2023-05-14T12:43:34.459Z,17.1
2023-05-14T12:44:34.472Z,17.1
2023-05-14T12:45:34.471Z,17.1
2023-05-14T12:46:34.514Z,17.1
2023-05-14T12:47:33.642Z,17.1
2023-05-14T12:48:34.249Z,17.1
2023-05-14T12:49:34.438Z,17.1
2023-05-14T12:50:34.415Z,17.1
2023-05-14T12:52:38.466Z,17.1
2023-05-14T12:53:33.868Z,17.1
2023-05-14T12:54:34.442Z,17.1
2023-05-14T12:55:33.592Z,17.1
2023-05-14T12:56:33.597Z,17.1
2023-05-14T12:57:34.238Z,17.1
2023-05-14T12:58:34.417Z,17.1
2023-05-14T12:59:34.427Z,17.1
2023-05-14T13:00:34.264Z,17.1
2023-05-14T13:01:34.568Z,17.1
2023-05-14T13:03:34.433Z,17.1
2023-05-14T13:04:34.610Z,17.1
2023-05-14T13:06:34.225Z,17.1
2023-05-14T13:07:33.973Z,17.1
2023-05-14T13:08:34.420Z,17.1
2023-05-14T13:09:34.403Z,17.1
2023-05-14T13:10:33.578Z,17.1
2023-05-14T13:11:34.400Z,17.1
2023-05-14T13:13:34.413Z,17.1
2023-05-14T13:15:33.807Z,17.1
2023-05-14T13:16:34.443Z,17.1
2023-05-14T13:17:34.456Z,17
2023-05-14T13:18:34.404Z,17
2023-05-14T13:19:34.337Z,17
2023-05-14T13:20:34.404Z,17
2023-05-14T13:22:34.237Z,17
2023-05-14T13:23:34.392Z,17
2023-05-14T13:24:34.384Z,17
2023-05-14T13:25:34.393Z,17
2023-05-14T13:26:34.375Z,17
2023-05-14T13:28:34.181Z,17
2023-05-14T13:29:34.439Z,17
2023-05-14T13:30:34.269Z,17
2023-05-14T13:32:34.648Z,17
2023-05-14T13:33:33.536Z,17
2023-05-14T13:34:34.367Z,17
2023-05-14T13:36:34.157Z,17
2023-05-14T13:37:34.329Z,17
2023-05-14T13:38:34.370Z,17
2023-05-14T13:39:34.350Z,17
2023-05-14T13:41:34.164Z,17
2023-05-14T13:42:34.358Z,17
2023-05-14T13:43:34.356Z,17
2023-05-14T13:44:33.775Z,17
2023-05-14T13:45:34.364Z,17
2023-05-14T13:46:34.373Z,17
2023-05-14T13:47:33.802Z,17
2023-05-14T13:48:34.330Z,17
2023-05-14T13:49:34.334Z,17
2023-05-14T13:50:34.381Z,17
2023-05-14T13:52:34.349Z,17
2023-05-14T13:54:34.347Z,17
2023-05-14T13:55:33.765Z,17
2023-05-14T13:56:34.333Z,17
2023-05-14T13:57:34.312Z,17
2023-05-14T13:58:34.345Z,17
2023-05-14T14:00:34.329Z,17
2023-05-14T14:01:33.786Z,17
2023-05-14T14:02:34.504Z,17
2023-05-14T14:05:34.356Z,17
2023-05-14T14:06:34.130Z,17
2023-05-14T14:08:34.299Z,17
2023-05-14T14:09:34.323Z,17
2023-05-14T14:10:34.310Z,17
2023-05-14T14:13:34.330Z,17
2023-05-14T14:14:33.888Z,17
2023-05-14T14:15:34.287Z,17
2023-05-14T14:16:34.350Z,17
2023-05-14T14:17:34.352Z,17
2023-05-14T14:18:33.746Z,17
2023-05-14T14:19:34.301Z,17
2023-05-14T14:20:34.295Z,17
2023-05-14T14:21:34.291Z,17
2023-05-14T14:23:34.280Z,17
2023-05-14T14:24:34.453Z,17
2023-05-14T14:25:33.445Z,17
2023-05-14T14:26:34.280Z,17
2023-05-14T14:27:34.260Z,17
2023-05-14T14:29:34.285Z,17
2023-05-14T14:30:34.274Z,16.9
2023-05-14T14:31:34.336Z,16.9
2023-05-14T14:32:34.336Z,16.9
2023-05-14T14:34:34.272Z,16.9
2023-05-14T14:36:34.059Z,16.9
2023-05-14T14:37:34.227Z,16.9
2023-05-14T14:38:34.268Z,16.9
2023-05-14T14:39:34.268Z,16.9
2023-05-14T14:40:33.677Z,16.9
2023-05-14T14:41:34.072Z,16.9
2023-05-14T14:42:33.687Z,16.9
2023-05-14T14:43:34.068Z,16.9
2023-05-14T14:45:34.320Z,16.8
2023-05-14T14:46:34.356Z,16.8
2023-05-14T14:47:33.663Z,16.8
2023-05-14T14:48:34.274Z,16.8
2023-05-14T14:49:33.389Z,16.8
2023-05-14T14:50:34.243Z,16.8
2023-05-14T14:51:34.233Z,16.8
2023-05-14T14:52:34.248Z,16.8
2023-05-14T14:54:34.264Z,16.8
2023-05-14T14:55:33.662Z,16.8
2023-05-14T14:56:34.246Z,16.8
2023-05-14T14:57:34.227Z,16.8
2023-05-14T14:58:33.816Z,16.8
2023-05-14T14:59:34.242Z,16.8
2023-05-14T15:00:33.660Z,16.8
2023-05-14T15:02:34.246Z,16.8
2023-05-14T15:03:34.374Z,16.8
2023-05-14T15:05:33.367Z,16.8
2023-05-14T15:06:34.213Z,16.8
2023-05-14T15:07:34.223Z,16.8
2023-05-14T15:09:34.041Z,16.8
2023-05-14T15:10:34.385Z,16.8
2023-05-14T15:11:36.047Z,16.8
2023-05-14T15:12:34.214Z,16.8
2023-05-14T15:14:34.215Z,16.8
2023-05-14T15:16:34.289Z,16.8
2023-05-14T15:17:34.298Z,16.8
2023-05-14T15:18:34.226Z,16.8
2023-05-14T15:19:34.016Z,16.8
2023-05-14T15:20:34.227Z,16.8
2023-05-14T15:21:34.201Z,16.8
2023-05-14T15:22:34.188Z,16.8
2023-05-14T15:23:34.192Z,16.8
2023-05-14T15:25:34.187Z,16.8
2023-05-14T15:26:34.184Z,16.8
2023-05-14T15:28:34.192Z,16.8
2023-05-14T15:29:34.212Z,16.8
2023-05-14T15:30:33.595Z,16.8
2023-05-14T15:32:34.217Z,16.8
2023-05-14T15:35:34.184Z,16.7
2023-05-14T15:36:34.179Z,16.7
2023-05-14T15:37:34.172Z,16.7
2023-05-14T15:38:34.174Z,16.7
2023-05-14T15:39:34.189Z,16.7
2023-05-14T15:41:34.182Z,16.7
2023-05-14T15:42:34.177Z,16.7
2023-05-14T15:43:33.335Z,16.7
2023-05-14T15:44:34.936Z,16.7
2023-05-14T15:45:34.157Z,16.7
2023-05-14T15:46:34.265Z,16.7
2023-05-14T15:48:34.176Z,16.7
2023-05-14T15:49:34.286Z,16.7
2023-05-14T15:50:34.159Z,16.7
2023-05-14T15:51:34.161Z,16.7
2023-05-14T15:53:34.151Z,16.6
2023-05-14T15:56:34.135Z,16.6
2023-05-14T15:57:34.152Z,16.6
2023-05-14T15:58:34.134Z,16.6
2023-05-14T15:59:33.310Z,16.6
2023-05-14T16:00:34.171Z,16.6
2023-05-14T16:01:34.168Z,16.6
2023-05-14T16:02:34.190Z,16.6
2023-05-14T16:03:34.215Z,16.6
2023-05-14T16:04:34.110Z,16.6
2023-05-14T16:05:33.556Z,16.6
2023-05-14T16:06:34.107Z,16.6
2023-05-14T16:07:34.131Z,16.6
2023-05-14T16:08:33.956Z,16.6
2023-05-14T16:09:33.540Z,16.6
2023-05-14T16:10:34.142Z,16.5
2023-05-14T16:11:33.279Z,16.5
2023-05-14T16:12:34.122Z,16.5
2023-05-14T16:13:34.105Z,16.5
2023-05-14T16:14:34.301Z,16.5
2023-05-14T16:16:34.127Z,16.5
2023-05-14T16:17:33.284Z,16.5
2023-05-14T16:18:34.127Z,16.5
2023-05-14T16:21:34.095Z,16.5
2023-05-14T16:22:34.107Z,16.4
2023-05-14T16:24:34.101Z,16.4
2023-05-14T16:25:34.054Z,16.4
2023-05-14T16:26:34.070Z,16.4
2023-05-14T16:28:34.097Z,16.4
2023-05-14T16:29:34.270Z,16.4
2023-05-14T16:30:34.078Z,16.4
2023-05-14T16:32:34.102Z,16.4
2023-05-14T16:34:34.083Z,16.4
2023-05-14T16:36:34.070Z,16.4
2023-05-14T16:37:34.084Z,16.4
2023-05-14T16:38:33.226Z,16.3
2023-05-14T16:39:34.060Z,16.3
2023-05-14T16:40:33.647Z,16.3
2023-05-14T16:41:34.044Z,16.3
2023-05-14T16:44:33.470Z,16.3
2023-05-14T16:45:34.057Z,16.3
2023-05-14T16:46:34.147Z,16.3
2023-05-14T16:47:34.099Z,16.3
2023-05-14T16:48:34.058Z,16.3
2023-05-14T16:52:34.027Z,16.3
2023-05-14T16:53:34.066Z,16.3
2023-05-14T16:54:34.048Z,16.3
2023-05-14T16:55:33.225Z,16.3
2023-05-14T16:57:33.449Z,16.3
2023-05-14T16:58:34.039Z,16.3
2023-05-14T16:59:34.047Z,16.3
2023-05-14T17:01:34.107Z,16.3
2023-05-14T17:02:33.489Z,16.3
2023-05-14T17:03:33.847Z,16.3
2023-05-14T17:04:34.064Z,16.3
2023-05-14T17:05:33.999Z,16.3
2023-05-14T17:06:34.013Z,16.3
2023-05-14T17:07:34.049Z,16.3
2023-05-14T17:08:33.993Z,16.3
2023-05-14T17:09:34.013Z,16.3
2023-05-14T17:10:34.014Z,16.3
2023-05-14T17:11:34.023Z,16.3
2023-05-14T17:12:33.417Z,16.3
2023-05-14T17:13:34.158Z,16.3
2023-05-14T17:15:33.198Z,16.2
2023-05-14T17:17:33.857Z,16.2
2023-05-14T17:18:33.826Z,16.2
2023-05-14T17:19:33.157Z,16.2
2023-05-14T17:20:33.990Z,16.2
2023-05-14T17:21:33.988Z,16.2
2023-05-14T17:22:33.977Z,16.2
2023-05-14T17:23:33.417Z,16.2
2023-05-14T17:24:33.987Z,16.2
2023-05-14T17:25:33.979Z,16.2
2023-05-14T17:26:33.964Z,16.2
2023-05-14T17:27:33.968Z,16.2
2023-05-14T17:28:33.972Z,16.2
2023-05-14T17:29:33.973Z,16.2
2023-05-14T17:30:33.971Z,16.2
2023-05-14T17:33:33.987Z,16.2
2023-05-14T17:34:33.955Z,16.2
2023-05-14T17:36:33.354Z,16.2
2023-05-14T17:37:33.723Z,16.2
2023-05-14T17:38:33.953Z,16.2
2023-05-14T17:41:33.941Z,16.2
2023-05-14T17:42:33.932Z,16.2
2023-05-14T17:43:33.118Z,16.2
2023-05-14T17:44:33.943Z,16.2
2023-05-14T17:45:42.709Z,16.2
2023-05-14T17:46:33.854Z,16.2
2023-05-14T17:47:34.021Z,16.1
2023-05-14T17:49:33.925Z,16.1
2023-05-14T17:50:33.938Z,16.1
2023-05-14T17:51:33.110Z,16.1
2023-05-14T17:52:33.945Z,16.1
2023-05-14T17:53:33.941Z,16.1
2023-05-14T17:57:33.938Z,16.1
2023-05-14T17:58:33.949Z,16.1